Capewater — PBPQ — position and weather

sailwx.info

Track history (hours):
 
Tides and Currents Weather Stations Pressure Air Temp Water Temp Dewpoint Dewpoint Depression Visibility Wind Speed Wind Dir Waves Ship Positions

Capewater

Last reported at 2017-Mar-25 11:29 UTC. Time now 2017-Mar-25 11:49 UTC.
Position N 53°58' E 007°46'.

Length 100 m; draft 5.4 m.

Type: Tanker. MMSI: 246346000.

Date/timePositionNaut miles runAvg speedWind from/ knotsBaromVisibWave heightAir tempDewpointWater temp
2017-Mar-25 11:29N 53°58' E 007°46'1111.5
2017-Mar-25 10:33N 53°55' E 007°29'1211.9
2017-Mar-25 09:32N 53°52' E 007°09'1212.4
2017-Mar-25 08:33N 53°49' E 006°49'1211.8
2017-Mar-25 07:33N 53°46' E 006°29'1312.7
2017-Mar-25 06:33N 53°42' E 006°09'1312.7
2017-Mar-25 05:33N 53°38' E 005°49'1312.5
2017-Mar-25 04:33N 53°34' E 005°28'1312.9
2017-Mar-25 03:33N 53°30' E 005°08'1312.6
2017-Mar-25 02:33N 53°25' E 004°48'1212.0
2017-Mar-25 01:33N 53°16' E 004°36'1211.8
2017-Mar-25 00:33N 53°05' E 004°26'1111.1
2017-Mar-24 23:33N 52°56' E 004°18'1110.6
2017-Mar-24 22:33N 52°47' E 004°09'1010.3
2017-Mar-24 21:33N 52°38' E 004°00'10 9.8
2017-Mar-24 20:33N 52°28' E 003°55'9 9.5
2017-Mar-24 19:33N 52°19' E 003°52'1010.5
2017-Mar-24 18:33N 52°09' E 003°54'1111.1
2017-Mar-24 17:33N 51°58' E 003°48'1 1.3
2017-Mar-24 16:31N 51°57' E 003°48'0 0.0
2017-Mar-24 15:31N 51°57' E 003°48'0 0.0
2017-Mar-24 14:31N 51°57' E 003°48'0 0.1
2017-Mar-24 13:31N 51°57' E 003°48'0 0.1
2017-Mar-24 12:31N 51°57' E 003°48'0 0.0
2017-Mar-24 11:31N 51°57' E 003°48'0 0.1
2017-Mar-24 10:31N 51°57' E 003°48'0 0.0
2017-Mar-24 09:28N 51°57' E 003°48'0 0.0
2017-Mar-24 08:31N 51°57' E 003°48'3 2.6
2017-Mar-24 07:33N 51°59' E 003°49'1211.9
2017-Mar-24 06:33N 51°58' E 004°08'1010.0
2017-Mar-24 05:33N 51°53' E 004°22'0 0.2
2017-Mar-24 04:26N 51°53' E 004°23'0 0.0
2017-Mar-24 03:26N 51°53' E 004°23'0 0.0
2017-Mar-24 02:26N 51°53' E 004°23'0 0.0
2017-Mar-24 00:32N 51°53' E 004°23'0 0.0
2017-Mar-23 23:32N 51°53' E 004°23'0 0.0
2017-Mar-23 22:32N 51°53' E 004°23'0 0.0
2017-Mar-23 21:32N 51°53' E 004°23'0 0.0
2017-Mar-23 20:32N 51°53' E 004°23'0 0.0
2017-Mar-23 19:34N 51°53' E 004°23'0 0.0
2017-Mar-23 18:33N 51°53' E 004°23'1 0.6
2017-Mar-23 17:33N 51°54' E 004°22'1 0.9
2017-Mar-23 16:26N 51°54' E 004°20'0 0.0
2017-Mar-23 15:29N 51°54' E 004°20'0 0.0
2017-Mar-23 14:29N 51°54' E 004°20'0 0.0
2017-Mar-23 13:11N 51°54' E 004°20'0 0.0
2017-Mar-23 12:32N 51°54' E 004°20'0 0.0
2017-Mar-23 11:32N 51°54' E 004°20'0 0.0
2017-Mar-23 10:23N 51°54' E 004°20'0 0.0
2017-Mar-23 09:32N 51°54' E 004°20'0 0.0
2017-Mar-23 08:20N 51°54' E 004°20'0 0.0
2017-Mar-23 07:26N 51°54' E 004°20'0 0.0
2017-Mar-23 06:23N 51°54' E 004°20'0 0.0
2017-Mar-23 05:26N 51°54' E 004°20'0 0.0
2017-Mar-23 04:29N 51°54' E 004°20'0 0.0
2017-Mar-23 03:32N 51°54' E 004°20'0 0.0
2017-Mar-23 02:26N 51°54' E 004°20'0 0.0
2017-Mar-23 01:32N 51°54' E 004°20'0 0.0
2017-Mar-23 00:26N 51°54' E 004°20'0 0.0
2017-Mar-22 23:26N 51°54' E 004°20'0 0.0
2017-Mar-22 22:32N 51°54' E 004°20'0 0.0
2017-Mar-22 21:29N 51°54' E 004°20'0 0.0
2017-Mar-22 20:20N 51°54' E 004°20'0 0.0
2017-Mar-22 19:32N 51°54' E 004°20'0 0.0
2017-Mar-22 18:32N 51°54' E 004°20'0 0.0
2017-Mar-22 17:32N 51°54' E 004°20'0 0.0
2017-Mar-22 16:32N 51°54' E 004°20'0 0.0
2017-Mar-22 15:29N 51°54' E 004°20'0 0.0
2017-Mar-22 14:26N 51°54' E 004°20'0 0.0
2017-Mar-22 13:32N 51°54' E 004°20'3 3.3
2017-Mar-22 12:34N 51°54' E 004°16'1110.5
2017-Mar-22 11:33N 51°60' E 004°01'1010.5
2017-Mar-22 10:33N 52°05' E 003°46'1211.5
2017-Mar-22 09:33N 52°16' E 003°46'1111.1
2017-Mar-22 08:31N 52°28' E 003°50'1010.5
2017-Mar-22 07:33N 52°38' E 003°53'1211.6
2017-Mar-22 06:33N 52°49' E 003°56'16310.1
2017-Mar-21 14:30N 54°01' E 008°01'9 9.9
2017-Mar-21 13:33N 54°00' E 008°16'10 9.7
2017-Mar-21 12:33N 53°58' E 008°33'1212.3
2017-Mar-21 11:34N 53°50' E 008°48'1313.4
2017-Mar-21 10:34N 53°53' E 009°11'1313.3
2017-Mar-21 09:33N 53°44' E 009°27'1313.2
2017-Mar-21 08:33N 53°34' E 009°42'10 9.6
2017-Mar-21 07:33N 53°33' E 009°57'2 1.8
2017-Mar-21 06:31N 53°32' E 010°00'0 0.0
2017-Mar-21 05:31N 53°32' E 010°00'0 0.0
2017-Mar-21 04:31N 53°32' E 010°00'0 0.0
2017-Mar-21 03:31N 53°32' E 010°00'0 0.0
2017-Mar-21 02:31N 53°32' E 010°00'0 0.0
2017-Mar-21 01:31N 53°32' E 010°00'0 0.0
2017-Mar-21 00:31N 53°32' E 010°00'0 0.0
2017-Mar-20 23:31N 53°32' E 010°00'0 0.0
2017-Mar-20 22:31N 53°32' E 010°00'0 0.0
2017-Mar-20 21:31N 53°32' E 010°00'0 0.0
2017-Mar-20 20:31N 53°32' E 010°00'0 0.0
2017-Mar-20 19:31N 53°32' E 010°00'0 0.0
2017-Mar-20 18:31N 53°32' E 010°00'4 4.4
2017-Mar-20 17:34N 53°32' E 009°53'1413.9
2017-Mar-20 16:33N 53°38' E 009°32'1515.3
2017-Mar-20 15:34N 53°51' E 009°19'6 6.3
2017-Mar-20 14:33N 53°54' E 009°09'1 0.9
2017-Mar-20 13:33N 53°54' E 009°10'0 0.3
2017-Mar-20 12:34N 53°54' E 009°10'0 0.4
2017-Mar-20 11:33N 53°55' E 009°11'8 7.6
2017-Mar-20 10:33N 54°01' E 009°18'45 5.0
2017-Mar-20 01:32N 54°30' E 010°17'8 1.5
2017-Mar-19 20:33N 54°33' E 010°29'1212.2
2017-Mar-19 19:33N 54°35' E 010°50'1212.1
2017-Mar-19 18:34N 54°37' E 011°11'1312.7
2017-Mar-19 17:33N 54°31' E 011°30'1312.7
2017-Mar-19 16:33N 54°27' E 011°51'1212.2
2017-Mar-19 15:33N 54°29' E 012°11'1212.0
2017-Mar-19 14:33N 54°39' E 012°23'2912.8
2017-Mar-19 12:18N 54°53' E 013°07'1013.6
2017-Mar-19 11:33N 54°57' E 013°23'1413.5
2017-Mar-19 10:33N 55°02' E 013°45'1312.8
2017-Mar-19 09:33N 55°07' E 014°06'1313.3
2017-Mar-19 08:33N 55°17' E 014°21'1414.0
2017-Mar-19 07:33N 55°28' E 014°37'1413.6
2017-Mar-19 06:33N 55°34' E 014°58'1413.6
2017-Mar-19 05:33N 55°40' E 015°19'1413.7
2017-Mar-19 04:33N 55°47' E 015°41'1413.7
2017-Mar-19 03:33N 55°54' E 016°02'1413.7
2017-Mar-19 02:33N 56°00' E 016°23'1413.7
2017-Mar-19 01:33N 56°08' E 016°43'1413.8
2017-Mar-19 00:33N 56°16' E 017°03'  
2017-Mar-16 04:15N 55°14' E 019°19'913.2
2017-Mar-16 03:33N 55°05' E 019°14'1313.0
2017-Mar-16 02:33N 54°53' E 019°07'1312.7
2017-Mar-16 01:34N 54°41' E 018°59'1413.6
2017-Mar-16 00:34N 54°30' E 018°46'6 6.4
2017-Mar-15 23:33N 54°24' E 018°41'0 0.0
2017-Mar-15 22:33N 54°24' E 018°41'0 0.0
2017-Mar-15 21:33N 54°24' E 018°41'0 0.0
2017-Mar-15 20:33N 54°24' E 018°41'0 0.0
2017-Mar-15 19:33N 54°24' E 018°41'0 0.0
2017-Mar-15 18:33N 54°24' E 018°41'0 0.0
2017-Mar-15 17:33N 54°24' E 018°41'0 0.0
2017-Mar-15 16:33N 54°24' E 018°41'0 0.0
2017-Mar-15 15:33N 54°24' E 018°41'0 0.0
2017-Mar-15 14:33N 54°24' E 018°41'0 0.0
2017-Mar-15 13:33N 54°24' E 018°41'0 0.0
2017-Mar-15 12:33N 54°24' E 018°41'0 0.0
2017-Mar-15 11:30N 54°24' E 018°41'  
Track history (hours):
 
Tides and Currents Weather Stations Pressure Air Temp Water Temp Dewpoint Dewpoint Depression Visibility Wind Speed Wind Dir Waves Ship Positions

Capewater

Last reported at 2017-Mar-25 11:29 UTC. Time now 2017-Mar-25 11:49 UTC.
Position N 53°58' E 007°46'.

Length 100 m; draft 5.4 m.

Type: Tanker. MMSI: 246346000.

Date/timePositionNaut miles runAvg speedWind from/ knotsBaromVisibWave heightAir tempDewpointWater temp
2017-Mar-25 11:29N 53°58' E 007°46'1111.5
2017-Mar-25 10:33N 53°55' E 007°29'1211.9
2017-Mar-25 09:32N 53°52' E 007°09'1212.4
2017-Mar-25 08:33N 53°49' E 006°49'1211.8
2017-Mar-25 07:33N 53°46' E 006°29'1312.7
2017-Mar-25 06:33N 53°42' E 006°09'1312.7
2017-Mar-25 05:33N 53°38' E 005°49'1312.5
2017-Mar-25 04:33N 53°34' E 005°28'1312.9
2017-Mar-25 03:33N 53°30' E 005°08'1312.6
2017-Mar-25 02:33N 53°25' E 004°48'1212.0
2017-Mar-25 01:33N 53°16' E 004°36'1211.8
2017-Mar-25 00:33N 53°05' E 004°26'1111.1
2017-Mar-24 23:33N 52°56' E 004°18'1110.6
2017-Mar-24 22:33N 52°47' E 004°09'1010.3
2017-Mar-24 21:33N 52°38' E 004°00'10 9.8
2017-Mar-24 20:33N 52°28' E 003°55'9 9.5
2017-Mar-24 19:33N 52°19' E 003°52'1010.5
2017-Mar-24 18:33N 52°09' E 003°54'1111.1
2017-Mar-24 17:33N 51°58' E 003°48'1 1.3
2017-Mar-24 16:31N 51°57' E 003°48'0 0.0
2017-Mar-24 15:31N 51°57' E 003°48'0 0.0
2017-Mar-24 14:31N 51°57' E 003°48'0 0.1
2017-Mar-24 13:31N 51°57' E 003°48'0 0.1
2017-Mar-24 12:31N 51°57' E 003°48'0 0.0
2017-Mar-24 11:31N 51°57' E 003°48'0 0.1
2017-Mar-24 10:31N 51°57' E 003°48'0 0.0
2017-Mar-24 09:28N 51°57' E 003°48'0 0.0
2017-Mar-24 08:31N 51°57' E 003°48'3 2.6
2017-Mar-24 07:33N 51°59' E 003°49'1211.9
2017-Mar-24 06:33N 51°58' E 004°08'1010.0
2017-Mar-24 05:33N 51°53' E 004°22'0 0.2
2017-Mar-24 04:26N 51°53' E 004°23'0 0.0
2017-Mar-24 03:26N 51°53' E 004°23'0 0.0
2017-Mar-24 02:26N 51°53' E 004°23'0 0.0
2017-Mar-24 00:32N 51°53' E 004°23'0 0.0
2017-Mar-23 23:32N 51°53' E 004°23'0 0.0
2017-Mar-23 22:32N 51°53' E 004°23'0 0.0
2017-Mar-23 21:32N 51°53' E 004°23'0 0.0
2017-Mar-23 20:32N 51°53' E 004°23'0 0.0
2017-Mar-23 19:34N 51°53' E 004°23'0 0.0
2017-Mar-23 18:33N 51°53' E 004°23'1 0.6
2017-Mar-23 17:33N 51°54' E 004°22'1 0.9
2017-Mar-23 16:26N 51°54' E 004°20'0 0.0
2017-Mar-23 15:29N 51°54' E 004°20'0 0.0
2017-Mar-23 14:29N 51°54' E 004°20'0 0.0
2017-Mar-23 13:11N 51°54' E 004°20'0 0.0
2017-Mar-23 12:32N 51°54' E 004°20'0 0.0
2017-Mar-23 11:32N 51°54' E 004°20'0 0.0
2017-Mar-23 10:23N 51°54' E 004°20'0 0.0
2017-Mar-23 09:32N 51°54' E 004°20'0 0.0
2017-Mar-23 08:20N 51°54' E 004°20'0 0.0
2017-Mar-23 07:26N 51°54' E 004°20'0 0.0
2017-Mar-23 06:23N 51°54' E 004°20'0 0.0
2017-Mar-23 05:26N 51°54' E 004°20'0 0.0
2017-Mar-23 04:29N 51°54' E 004°20'0 0.0
2017-Mar-23 03:32N 51°54' E 004°20'0 0.0
2017-Mar-23 02:26N 51°54' E 004°20'0 0.0
2017-Mar-23 01:32N 51°54' E 004°20'0 0.0
2017-Mar-23 00:26N 51°54' E 004°20'0 0.0
2017-Mar-22 23:26N 51°54' E 004°20'0 0.0
2017-Mar-22 22:32N 51°54' E 004°20'0 0.0
2017-Mar-22 21:29N 51°54' E 004°20'0 0.0
2017-Mar-22 20:20N 51°54' E 004°20'0 0.0
2017-Mar-22 19:32N 51°54' E 004°20'0 0.0
2017-Mar-22 18:32N 51°54' E 004°20'0 0.0
2017-Mar-22 17:32N 51°54' E 004°20'0 0.0
2017-Mar-22 16:32N 51°54' E 004°20'0 0.0
2017-Mar-22 15:29N 51°54' E 004°20'0 0.0
2017-Mar-22 14:26N 51°54' E 004°20'0 0.0
2017-Mar-22 13:32N 51°54' E 004°20'3 3.3
2017-Mar-22 12:34N 51°54' E 004°16'1110.5
2017-Mar-22 11:33N 51°60' E 004°01'1010.5
2017-Mar-22 10:33N 52°05' E 003°46'1211.5
2017-Mar-22 09:33N 52°16' E 003°46'1111.1
2017-Mar-22 08:31N 52°28' E 003°50'1010.5
2017-Mar-22 07:33N 52°38' E 003°53'1211.6
2017-Mar-22 06:33N 52°49' E 003°56'16310.1
2017-Mar-21 14:30N 54°01' E 008°01'9 9.9
2017-Mar-21 13:33N 54°00' E 008°16'10 9.7
2017-Mar-21 12:33N 53°58' E 008°33'1212.3
2017-Mar-21 11:34N 53°50' E 008°48'1313.4
2017-Mar-21 10:34N 53°53' E 009°11'1313.3
2017-Mar-21 09:33N 53°44' E 009°27'1313.2
2017-Mar-21 08:33N 53°34' E 009°42'10 9.6
2017-Mar-21 07:33N 53°33' E 009°57'2 1.8
2017-Mar-21 06:31N 53°32' E 010°00'0 0.0
2017-Mar-21 05:31N 53°32' E 010°00'0 0.0
2017-Mar-21 04:31N 53°32' E 010°00'0 0.0
2017-Mar-21 03:31N 53°32' E 010°00'0 0.0
2017-Mar-21 02:31N 53°32' E 010°00'0 0.0
2017-Mar-21 01:31N 53°32' E 010°00'0 0.0
2017-Mar-21 00:31N 53°32' E 010°00'0 0.0
2017-Mar-20 23:31N 53°32' E 010°00'0 0.0
2017-Mar-20 22:31N 53°32' E 010°00'0 0.0
2017-Mar-20 21:31N 53°32' E 010°00'0 0.0
2017-Mar-20 20:31N 53°32' E 010°00'0 0.0
2017-Mar-20 19:31N 53°32' E 010°00'0 0.0
2017-Mar-20 18:31N 53°32' E 010°00'4 4.4
2017-Mar-20 17:34N 53°32' E 009°53'1413.9
2017-Mar-20 16:33N 53°38' E 009°32'1515.3
2017-Mar-20 15:34N 53°51' E 009°19'6 6.3
2017-Mar-20 14:33N 53°54' E 009°09'1 0.9
2017-Mar-20 13:33N 53°54' E 009°10'0 0.3
2017-Mar-20 12:34N 53°54' E 009°10'0 0.4
2017-Mar-20 11:33N 53°55' E 009°11'8 7.6
2017-Mar-20 10:33N 54°01' E 009°18'45 5.0
2017-Mar-20 01:32N 54°30' E 010°17'8 1.5
2017-Mar-19 20:33N 54°33' E 010°29'1212.2
2017-Mar-19 19:33N 54°35' E 010°50'1212.1
2017-Mar-19 18:34N 54°37' E 011°11'1312.7
2017-Mar-19 17:33N 54°31' E 011°30'1312.7
2017-Mar-19 16:33N 54°27' E 011°51'1212.2
2017-Mar-19 15:33N 54°29' E 012°11'1212.0
2017-Mar-19 14:33N 54°39' E 012°23'2912.8
2017-Mar-19 12:18N 54°53' E 013°07'1013.6
2017-Mar-19 11:33N 54°57' E 013°23'1413.5
2017-Mar-19 10:33N 55°02' E 013°45'1312.8
2017-Mar-19 09:33N 55°07' E 014°06'1313.3
2017-Mar-19 08:33N 55°17' E 014°21'1414.0
2017-Mar-19 07:33N 55°28' E 014°37'1413.6
2017-Mar-19 06:33N 55°34' E 014°58'1413.6
2017-Mar-19 05:33N 55°40' E 015°19'1413.7
2017-Mar-19 04:33N 55°47' E 015°41'1413.7
2017-Mar-19 03:33N 55°54' E 016°02'1413.7
2017-Mar-19 02:33N 56°00' E 016°23'1413.7
2017-Mar-19 01:33N 56°08' E 016°43'1413.8
2017-Mar-19 00:33N 56°16' E 017°03'  
2017-Mar-16 04:15N 55°14' E 019°19'913.2
2017-Mar-16 03:33N 55°05' E 019°14'1313.0
2017-Mar-16 02:33N 54°53' E 019°07'1312.7
2017-Mar-16 01:34N 54°41' E 018°59'1413.6
2017-Mar-16 00:34N 54°30' E 018°46'6 6.4
2017-Mar-15 23:33N 54°24' E 018°41'0 0.0
2017-Mar-15 22:33N 54°24' E 018°41'0 0.0
2017-Mar-15 21:33N 54°24' E 018°41'0 0.0
2017-Mar-15 20:33N 54°24' E 018°41'0 0.0
2017-Mar-15 19:33N 54°24' E 018°41'0 0.0
2017-Mar-15 18:33N 54°24' E 018°41'0 0.0
2017-Mar-15 17:33N 54°24' E 018°41'0 0.0
2017-Mar-15 16:33N 54°24' E 018°41'0 0.0
2017-Mar-15 15:33N 54°24' E 018°41'0 0.0
2017-Mar-15 14:33N 54°24' E 018°41'0 0.0
2017-Mar-15 13:33N 54°24' E 018°41'0 0.0
2017-Mar-15 12:33N 54°24' E 018°41'0 0.0
2017-Mar-15 11:30N 54°24' E 018°41'  

Dump ship's entire track history